sensor_id;sensor_type;location;lat;lon;timestamp;pressure;altitude;pressure_sealevel;temperature;humidity
65534;BME280;53640;55.838;37.184;2023-02-20T00:00:16;97040.09;;;-7.12;59.37
65534;BME280;53640;55.838;37.184;2023-02-20T00:02:43;97029.75;;;-7.22;59.60
65534;BME280;53640;55.838;37.184;2023-02-20T00:05:12;97067.56;;;-6.98;59.51
65534;BME280;53640;55.838;37.184;2023-02-20T00:07:39;97072.31;;;-7.02;59.57
65534;BME280;53640;55.838;37.184;2023-02-20T00:10:06;97068.50;;;-7.07;59.90
65534;BME280;53640;55.838;37.184;2023-02-20T00:12:33;97068.19;;;-7.04;59.59
65534;BME280;53640;55.838;37.184;2023-02-20T00:14:59;97052.91;;;-7.17;59.71
65534;BME280;53640;55.838;37.184;2023-02-20T00:17:25;97056.69;;;-7.11;59.74
65534;BME280;53640;55.838;37.184;2023-02-20T00:19:54;97065.25;;;-7.09;59.41
65534;BME280;53640;55.838;37.184;2023-02-20T00:22:22;97070.31;;;-7.08;59.52
65534;BME280;53640;55.838;37.184;2023-02-20T00:24:50;97057.19;;;-7.16;59.28
65534;BME280;53640;55.838;37.184;2023-02-20T00:27:17;97067.53;;;-7.14;59.29
65534;BME280;53640;55.838;37.184;2023-02-20T00:29:44;97058.31;;;-7.18;59.48
65534;BME280;53640;55.838;37.184;2023-02-20T00:32:11;97050.94;;;-7.23;59.43
65534;BME280;53640;55.838;37.184;2023-02-20T00:34:37;97061.44;;;-7.15;59.06
65534;BME280;53640;55.838;37.184;2023-02-20T00:37:05;97035.47;;;-7.34;59.27
65534;BME280;53640;55.838;37.184;2023-02-20T00:39:32;97026.09;;;-7.45;59.24
65534;BME280;53640;55.838;37.184;2023-02-20T00:41:58;97077.56;;;-7.18;59.28
65534;BME280;53640;55.838;37.184;2023-02-20T00:44:25;97065.56;;;-7.29;59.08
65534;BME280;53640;55.838;37.184;2023-02-20T00:46:53;97004.53;;;-7.73;59.45
65534;BME280;53640;55.838;37.184;2023-02-20T00:49:19;97061.41;;;-7.39;59.29
65534;BME280;53640;55.838;37.184;2023-02-20T00:51:47;97047.44;;;-7.48;59.35
65534;BME280;53640;55.838;37.184;2023-02-20T00:54:13;97032.63;;;-7.57;59.17
65534;BME280;53640;55.838;37.184;2023-02-20T00:56:40;97024.25;;;-7.69;59.18
65534;BME280;53640;55.838;37.184;2023-02-20T00:59:06;97069.63;;;-7.42;59.37
65534;BME280;53640;55.838;37.184;2023-02-20T01:01:33;97030.16;;;-7.67;59.49
65534;BME280;53640;55.838;37.184;2023-02-20T01:03:59;97050.84;;;-7.56;59.45
65534;BME280;53640;55.838;37.184;2023-02-20T01:06:26;97058.91;;;-7.49;59.44
65534;BME280;53640;55.838;37.184;2023-02-20T01:08:52;97066.16;;;-7.51;59.45
65534;BME280;53640;55.838;37.184;2023-02-20T01:11:21;97062.22;;;-7.55;59.49
65534;BME280;53640;55.838;37.184;2023-02-20T01:13:47;97051.66;;;-7.63;59.34
65534;BME280;53640;55.838;37.184;2023-02-20T01:16:14;97033.09;;;-7.78;59.41
65534;BME280;53640;55.838;37.184;2023-02-20T01:18:43;97050.00;;;-7.73;59.22
65534;BME280;53640;55.838;37.184;2023-02-20T01:21:09;96934.91;;;-8.44;58.93
65534;BME280;53640;55.838;37.184;2023-02-20T01:23:36;97044.56;;;-7.71;58.84
65534;BME280;53640;55.838;37.184;2023-02-20T01:26:02;97037.00;;;-7.82;58.79
65534;BME280;53640;55.838;37.184;2023-02-20T01:28:28;97057.84;;;-7.81;58.89
65534;BME280;53640;55.838;37.184;2023-02-20T01:30:55;97025.28;;;-8.04;58.92
65534;BME280;53640;55.838;37.184;2023-02-20T01:33:21;97021.00;;;-8.05;58.87
65534;BME280;53640;55.838;37.184;2023-02-20T01:35:47;97072.78;;;-7.81;58.91
65534;BME280;53640;55.838;37.184;2023-02-20T01:38:14;97062.91;;;-7.87;58.93
65534;BME280;53640;55.838;37.184;2023-02-20T01:40:47;97086.41;;;-7.78;58.76
65534;BME280;53640;55.838;37.184;2023-02-20T01:43:14;97025.50;;;-8.24;58.75
65534;BME280;53640;55.838;37.184;2023-02-20T01:45:41;97044.28;;;-8.10;58.83
65534;BME280;53640;55.838;37.184;2023-02-20T01:48:19;97083.09;;;-7.88;58.92
65534;BME280;53640;55.838;37.184;2023-02-20T01:50:52;97038.47;;;-8.22;58.78
65534;BME280;53640;55.838;37.184;2023-02-20T01:53:21;97074.50;;;-7.98;58.68
65534;BME280;53640;55.838;37.184;2023-02-20T01:55:53;96998.38;;;-8.40;58.80
65534;BME280;53640;55.838;37.184;2023-02-20T01:58:28;97090.75;;;-7.95;58.52
65534;BME280;53640;55.838;37.184;2023-02-20T02:00:58;97088.44;;;-7.98;58.64
65534;BME280;53640;55.838;37.184;2023-02-20T02:03:29;97088.44;;;-7.98;58.56
65534;BME280;53640;55.838;37.184;2023-02-20T02:05:59;97037.47;;;-8.29;58.45
65534;BME280;53640;55.838;37.184;2023-02-20T02:08:27;97080.03;;;-8.09;58.48
65534;BME280;53640;55.838;37.184;2023-02-20T02:11:08;97075.94;;;-8.12;58.39
65534;BME280;53640;55.838;37.184;2023-02-20T02:13:36;97039.75;;;-8.34;58.51
65534;BME280;53640;55.838;37.184;2023-02-20T02:43:28;97106.06;;;-8.16;59.30
65534;BME280;53640;55.838;37.184;2023-02-20T02:46:08;97078.25;;;-8.35;59.17
65534;BME280;53640;55.838;37.184;2023-02-20T02:51:34;97058.75;;;-8.32;59.09
65534;BME280;53640;55.838;37.184;2023-02-20T02:54:04;97104.53;;;-8.01;59.12
65534;BME280;53640;55.838;37.184;2023-02-20T02:56:38;97093.88;;;-7.99;59.07
65534;BME280;53640;55.838;37.184;2023-02-20T02:59:08;97095.19;;;-7.95;58.76
65534;BME280;53640;55.838;37.184;2023-02-20T03:01:42;97098.34;;;-7.91;58.64
65534;BME280;53640;55.838;37.184;2023-02-20T03:04:11;97063.63;;;-8.11;58.63
65534;BME280;53640;55.838;37.184;2023-02-20T03:06:43;97074.69;;;-8.00;58.52
65534;BME280;53640;55.838;37.184;2023-02-20T03:09:31;97109.56;;;-7.73;58.54
65534;BME280;53640;55.838;37.184;2023-02-20T03:12:02;97089.63;;;-7.92;58.18
65534;BME280;53640;55.838;37.184;2023-02-20T03:14:41;97119.09;;;-7.72;58.32
65534;BME280;53640;55.838;37.184;2023-02-20T03:17:41;97095.41;;;-7.88;58.21
65534;BME280;53640;55.838;37.184;2023-02-20T03:20:11;97109.06;;;-7.77;58.10
65534;BME280;53640;55.838;37.184;2023-02-20T03:25:20;97002.63;;;-8.39;57.76
65534;BME280;53640;55.838;37.184;2023-02-20T03:28:41;97116.50;;;-7.64;57.65
65534;BME280;53640;55.838;37.184;2023-02-20T03:33:30;97120.44;;;-7.60;57.48
65534;BME280;53640;55.838;37.184;2023-02-20T03:36:23;97116.84;;;-7.67;57.43
65534;BME280;53640;55.838;37.184;2023-02-20T03:39:17;97121.72;;;-7.72;57.16
65534;BME280;53640;55.838;37.184;2023-02-20T03:42:06;97108.34;;;-7.87;57.39
65534;BME280;53640;55.838;37.184;2023-02-20T03:45:03;97107.19;;;-7.93;57.46
65534;BME280;53640;55.838;37.184;2023-02-20T03:47:33;97118.34;;;-7.90;57.64
65534;BME280;53640;55.838;37.184;2023-02-20T03:50:04;97073.25;;;-8.20;57.73
65534;BME280;53640;55.838;37.184;2023-02-20T03:52:36;97087.03;;;-8.18;57.82
65534;BME280;53640;55.838;37.184;2023-02-20T03:55:04;97108.75;;;-8.08;57.73
65534;BME280;53640;55.838;37.184;2023-02-20T03:57:36;97112.72;;;-8.04;57.77
65534;BME280;53640;55.838;37.184;2023-02-20T04:00:17;97098.06;;;-8.14;58.01
65534;BME280;53640;55.838;37.184;2023-02-20T04:02:52;97096.81;;;-8.28;57.94
65534;BME280;53640;55.838;37.184;2023-02-20T04:05:29;97113.25;;;-8.26;58.14
65534;BME280;53640;55.838;37.184;2023-02-20T04:08:06;97106.84;;;-8.24;58.31
65534;BME280;53640;55.838;37.184;2023-02-20T04:10:44;97116.41;;;-8.14;58.36
65534;BME280;53640;55.838;37.184;2023-02-20T04:13:14;97130.38;;;-8.14;58.34
65534;BME280;53640;55.838;37.184;2023-02-20T04:15:48;97133.47;;;-8.19;58.51
65534;BME280;53640;55.838;37.184;2023-02-20T04:18:36;97058.75;;;-8.58;58.79
65534;BME280;53640;55.838;37.184;2023-02-20T04:21:37;97144.22;;;-8.04;58.53
65534;BME280;53640;55.838;37.184;2023-02-20T04:28:34;97153.25;;;-7.98;58.53
65534;BME280;53640;55.838;37.184;2023-02-20T04:31:27;97147.03;;;-7.97;58.55
65534;BME280;53640;55.838;37.184;2023-02-20T04:35:16;97145.06;;;-7.95;58.53
65534;BME280;53640;55.838;37.184;2023-02-20T04:38:07;97137.03;;;-7.94;58.62
65534;BME280;53640;55.838;37.184;2023-02-20T04:41:09;97141.97;;;-7.90;58.52
65534;BME280;53640;55.838;37.184;2023-02-20T04:44:14;97148.91;;;-7.89;58.42
65534;BME280;53640;55.838;37.184;2023-02-20T04:47:33;97133.06;;;-7.98;58.37
65534;BME280;53640;55.838;37.184;2023-02-20T04:50:00;97135.25;;;-7.93;58.41
65534;BME280;53640;55.838;37.184;2023-02-20T04:52:26;97133.13;;;-7.89;57.96
65534;BME280;53640;55.838;37.184;2023-02-20T04:54:55;97091.34;;;-8.09;58.28
65534;BME280;53640;55.838;37.184;2023-02-20T04:57:37;97099.13;;;-7.99;58.26
65534;BME280;53640;55.838;37.184;2023-02-20T05:00:31;97023.59;;;-8.48;58.12
65534;BME280;53640;55.838;37.184;2023-02-20T05:03:22;97052.88;;;-8.26;58.06
65534;BME280;53640;55.838;37.184;2023-02-20T05:05:56;97086.09;;;-8.09;57.94
65534;BME280;53640;55.838;37.184;2023-02-20T05:08:59;97055.31;;;-8.33;57.82
65534;BME280;53640;55.838;37.184;2023-02-20T05:11:35;97010.22;;;-8.62;58.04
65534;BME280;53640;55.838;37.184;2023-02-20T05:14:25;97099.44;;;-8.02;57.85
65534;BME280;53640;55.838;37.184;2023-02-20T05:17:44;97158.53;;;-7.64;58.07
65534;BME280;53640;55.838;37.184;2023-02-20T05:20:57;97163.78;;;-7.64;58.06
65534;BME280;53640;55.838;37.184;2023-02-20T05:24:06;97052.88;;;-8.26;58.04
65534;BME280;53640;55.838;37.184;2023-02-20T05:27:16;97094.22;;;-7.94;58.14
65534;BME280;53640;55.838;37.184;2023-02-20T05:30:01;97056.16;;;-8.24;58.13
65534;BME280;53640;55.838;37.184;2023-02-20T05:32:51;97154.31;;;-7.49;57.99
65534;BME280;53640;55.838;37.184;2023-02-20T05:35:26;97084.91;;;-7.88;57.87
65534;BME280;53640;55.838;37.184;2023-02-20T05:37:52;97155.81;;;-7.46;57.49
65534;BME280;53640;55.838;37.184;2023-02-20T05:40:19;97124.03;;;-7.69;57.54
65534;BME280;53640;55.838;37.184;2023-02-20T05:42:46;97159.22;;;-7.54;57.75
65534;BME280;53640;55.838;37.184;2023-02-20T05:45:14;97161.88;;;-7.46;57.73
65534;BME280;53640;55.838;37.184;2023-02-20T05:47:41;97166.53;;;-7.39;57.69
65534;BME280;53640;55.838;37.184;2023-02-20T05:50:08;97119.81;;;-7.62;57.54
65534;BME280;53640;55.838;37.184;2023-02-20T05:52:39;97171.97;;;-7.33;57.64
65534;BME280;53640;55.838;37.184;2023-02-20T05:55:06;97138.75;;;-7.42;57.61
65534;BME280;53640;55.838;37.184;2023-02-20T05:57:33;97155.03;;;-7.30;57.83
65534;BME280;53640;55.838;37.184;2023-02-20T05:59:59;97151.28;;;-7.28;57.73
65534;BME280;53640;55.838;37.184;2023-02-20T06:02:25;97162.13;;;-7.23;57.46
65534;BME280;53640;55.838;37.184;2023-02-20T06:04:52;97181.06;;;-7.11;57.34
65534;BME280;53640;55.838;37.184;2023-02-20T06:07:19;97185.66;;;-7.13;57.06
65534;BME280;53640;55.838;37.184;2023-02-20T06:09:45;97178.78;;;-7.06;57.03
65534;BME280;53640;55.838;37.184;2023-02-20T06:12:12;97189.00;;;-7.03;57.23
65534;BME280;53640;55.838;37.184;2023-02-20T06:14:39;97185.69;;;-7.05;56.75
65534;BME280;53640;55.838;37.184;2023-02-20T06:17:06;97150.78;;;-7.31;56.64
65534;BME280;53640;55.838;37.184;2023-02-20T06:19:32;97176.31;;;-7.07;56.84
65534;BME280;53640;55.838;37.184;2023-02-20T06:21:59;97190.44;;;-7.08;56.55
65534;BME280;53640;55.838;37.184;2023-02-20T06:24:26;97203.28;;;-6.97;56.57
65534;BME280;53640;55.838;37.184;2023-02-20T06:26:54;97167.09;;;-7.11;56.49
65534;BME280;53640;55.838;37.184;2023-02-20T06:29:20;97173.53;;;-7.06;56.61
65534;BME280;53640;55.838;37.184;2023-02-20T06:31:47;97163.97;;;-7.15;56.12
65534;BME280;53640;55.838;37.184;2023-02-20T06:34:14;97179.59;;;-7.05;56.24
65534;BME280;53640;55.838;37.184;2023-02-20T06:36:42;97193.28;;;-6.93;55.97
65534;BME280;53640;55.838;37.184;2023-02-20T06:39:13;97134.69;;;-7.36;56.03
65534;BME280;53640;55.838;37.184;2023-02-20T06:41:50;97199.03;;;-6.90;56.33
65534;BME280;53640;55.838;37.184;2023-02-20T06:45:11;97062.13;;;-7.72;55.95
65534;BME280;53640;55.838;37.184;2023-02-20T06:47:43;97187.22;;;-6.86;56.36
65534;BME280;53640;55.838;37.184;2023-02-20T06:50:43;97099.34;;;-7.42;56.31
65534;BME280;53640;55.838;37.184;2023-02-20T06:53:10;97177.00;;;-6.97;55.98
65534;BME280;53640;55.838;37.184;2023-02-20T06:55:38;97170.91;;;-6.98;56.05
65534;BME280;53640;55.838;37.184;2023-02-20T06:58:04;97169.09;;;-7.05;55.66
65534;BME280;53640;55.838;37.184;2023-02-20T07:00:31;97119.88;;;-7.37;55.95
65534;BME280;53640;55.838;37.184;2023-02-20T07:02:57;97147.06;;;-7.12;55.44
65534;BME280;53640;55.838;37.184;2023-02-20T07:05:24;97129.44;;;-7.28;55.47
65534;BME280;53640;55.838;37.184;2023-02-20T07:07:51;97208.63;;;-6.73;55.69
65534;BME280;53640;55.838;37.184;2023-02-20T07:10:17;97164.03;;;-6.99;55.59
65534;BME280;53640;55.838;37.184;2023-02-20T07:12:44;97193.16;;;-6.76;55.71
65534;BME280;53640;55.838;37.184;2023-02-20T07:15:10;97175.38;;;-6.90;55.38
65534;BME280;53640;55.838;37.184;2023-02-20T07:17:37;97211.56;;;-6.76;55.33
65534;BME280;53640;55.838;37.184;2023-02-20T07:20:24;97167.97;;;-6.94;55.40
65534;BME280;53640;55.838;37.184;2023-02-20T07:23:22;97157.44;;;-7.03;55.24
65534;BME280;53640;55.838;37.184;2023-02-20T07:25:51;97211.09;;;-6.63;55.58
65534;BME280;53640;55.838;37.184;2023-02-20T07:28:18;97151.84;;;-7.00;55.56
65534;BME280;53640;55.838;37.184;2023-02-20T07:30:46;97197.94;;;-6.71;55.42
65534;BME280;53640;55.838;37.184;2023-02-20T07:33:17;97166.66;;;-6.90;55.14
65534;BME280;53640;55.838;37.184;2023-02-20T07:35:45;97176.06;;;-6.80;54.93
65534;BME280;53640;55.838;37.184;2023-02-20T07:38:15;97142.81;;;-7.05;54.73
65534;BME280;53640;55.838;37.184;2023-02-20T07:40:42;97131.91;;;-7.18;54.92
65534;BME280;53640;55.838;37.184;2023-02-20T07:43:09;97143.63;;;-6.97;55.14
65534;BME280;53640;55.838;37.184;2023-02-20T07:45:37;97155.16;;;-6.81;55.21
65534;BME280;53640;55.838;37.184;2023-02-20T07:48:04;97215.72;;;-6.40;54.90
65534;BME280;53640;55.838;37.184;2023-02-20T07:50:30;97190.41;;;-6.50;54.76
65534;BME280;53640;55.838;37.184;2023-02-20T07:52:57;97238.44;;;-6.23;54.58
65534;BME280;53640;55.838;37.184;2023-02-20T07:55:23;97241.72;;;-6.21;54.27
65534;BME280;53640;55.838;37.184;2023-02-20T07:57:50;97221.81;;;-6.32;54.34
65534;BME280;53640;55.838;37.184;2023-02-20T08:00:20;97219.66;;;-6.28;54.31
65534;BME280;53640;55.838;37.184;2023-02-20T08:02:47;97232.00;;;-6.20;54.23
65534;BME280;53640;55.838;37.184;2023-02-20T08:05:13;97228.91;;;-6.24;54.27
65534;BME280;53640;55.838;37.184;2023-02-20T08:07:47;97231.84;;;-6.11;54.20
65534;BME280;53640;55.838;37.184;2023-02-20T08:10:16;97212.75;;;-6.21;53.90
65534;BME280;53640;55.838;37.184;2023-02-20T08:12:42;97243.06;;;-6.01;53.50
65534;BME280;53640;55.838;37.184;2023-02-20T08:15:09;97195.00;;;-6.27;53.60
65534;BME280;53640;55.838;37.184;2023-02-20T08:17:38;97248.31;;;-5.92;53.46
65534;BME280;53640;55.838;37.184;2023-02-20T08:20:05;97250.63;;;-5.89;53.39
65534;BME280;53640;55.838;37.184;2023-02-20T08:22:33;97252.91;;;-5.94;53.40
65534;BME280;53640;55.838;37.184;2023-02-20T08:25:00;97217.88;;;-6.11;52.82
65534;BME280;53640;55.838;37.184;2023-02-20T08:27:26;97227.59;;;-6.12;52.84
65534;BME280;53640;55.838;37.184;2023-02-20T08:29:52;97238.44;;;-6.07;52.69
65534;BME280;53640;55.838;37.184;2023-02-20T08:32:19;97231.53;;;-6.08;53.20
65534;BME280;53640;55.838;37.184;2023-02-20T08:34:45;97237.63;;;-5.99;52.87
65534;BME280;53640;55.838;37.184;2023-02-20T08:37:13;97226.28;;;-6.08;52.79
65534;BME280;53640;55.838;37.184;2023-02-20T08:39:40;97237.78;;;-6.01;52.77
65534;BME280;53640;55.838;37.184;2023-02-20T08:42:06;97220.50;;;-6.11;52.88
65534;BME280;53640;55.838;37.184;2023-02-20T08:44:33;97272.03;;;-5.84;52.90
65534;BME280;53640;55.838;37.184;2023-02-20T08:46:59;97222.16;;;-6.10;53.04
65534;BME280;53640;55.838;37.184;2023-02-20T08:49:26;97266.09;;;-5.78;52.67
65534;BME280;53640;55.838;37.184;2023-02-20T08:51:54;97261.47;;;-5.76;52.76
65534;BME280;53640;55.838;37.184;2023-02-20T08:54:22;97174.59;;;-6.33;52.37
65534;BME280;53640;55.838;37.184;2023-02-20T08:56:55;97164.41;;;-6.36;52.42
65534;BME280;53640;55.838;37.184;2023-02-20T08:59:22;97125.25;;;-6.64;52.29
65534;BME280;53640;55.838;37.184;2023-02-20T09:01:51;97270.03;;;-5.74;51.98
65534;BME280;53640;55.838;37.184;2023-02-20T09:04:21;97172.16;;;-6.35;51.80
65534;BME280;53640;55.838;37.184;2023-02-20T09:07:06;97124.94;;;-6.69;51.85
65534;BME280;53640;55.838;37.184;2023-02-20T09:09:32;97213.25;;;-6.09;51.88
65534;BME280;53640;55.838;37.184;2023-02-20T09:12:00;97171.31;;;-6.43;51.63
65534;BME280;53640;55.838;37.184;2023-02-20T09:14:32;97293.94;;;-5.67;51.16
65534;BME280;53640;55.838;37.184;2023-02-20T09:17:01;97201.59;;;-6.15;51.40
65534;BME280;53640;55.838;37.184;2023-02-20T09:19:32;97234.81;;;-6.06;51.15
65534;BME280;53640;55.838;37.184;2023-02-20T09:22:09;97212.28;;;-6.16;51.00
65534;BME280;53640;55.838;37.184;2023-02-20T09:24:38;97155.03;;;-6.39;51.07
65534;BME280;53640;55.838;37.184;2023-02-20T09:27:11;97169.84;;;-6.30;51.10
65534;BME280;53640;55.838;37.184;2023-02-20T09:29:44;97247.31;;;-5.75;51.03
65534;BME280;53640;55.838;37.184;2023-02-20T09:32:11;97191.84;;;-5.98;51.24
65534;BME280;53640;55.838;37.184;2023-02-20T09:34:47;97202.88;;;-5.86;50.90
65534;BME280;53640;55.838;37.184;2023-02-20T09:37:51;97155.69;;;-6.12;50.57
65534;BME280;53640;55.838;37.184;2023-02-20T09:40:34;97158.28;;;-5.96;50.77
65534;BME280;53640;55.838;37.184;2023-02-20T09:46:24;97230.97;;;-5.54;50.48
65534;BME280;53640;55.838;37.184;2023-02-20T09:49:12;97167.81;;;-5.95;50.44
65534;BME280;53640;55.838;37.184;2023-02-20T09:51:48;97209.06;;;-5.55;50.87
65534;BME280;53640;55.838;37.184;2023-02-20T09:54:31;97270.59;;;-5.15;50.32
65534;BME280;53640;55.838;37.184;2023-02-20T09:57:22;97187.31;;;-5.57;50.45
65534;BME280;53640;55.838;37.184;2023-02-20T10:00:31;97252.44;;;-5.10;50.08
65534;BME280;53640;55.838;37.184;2023-02-20T10:06:20;97171.88;;;-5.60;49.77
65534;BME280;53640;55.838;37.184;2023-02-20T10:08:58;97246.78;;;-4.98;49.79
65534;BME280;53640;55.838;37.184;2023-02-20T10:21:28;97247.47;;;-4.65;48.43
65534;BME280;53640;55.838;37.184;2023-02-20T10:30:30;97258.31;;;-4.60;47.66
65534;BME280;53640;55.838;37.184;2023-02-20T10:35:44;97272.84;;;-4.64;47.61
65534;BME280;53640;55.838;37.184;2023-02-20T10:38:25;97143.00;;;-5.45;47.26
65534;BME280;53640;55.838;37.184;2023-02-20T10:44:40;97248.53;;;-4.83;47.36
65534;BME280;53640;55.838;37.184;2023-02-20T10:47:05;97246.38;;;-4.79;47.68
65534;BME280;53640;55.838;37.184;2023-02-20T10:56:24;97262.50;;;-4.74;47.83
65534;BME280;53640;55.838;37.184;2023-02-20T10:59:17;97116.53;;;-5.60;47.83
65534;BME280;53640;55.838;37.184;2023-02-20T11:01:48;97179.97;;;-5.22;47.53
65534;BME280;53640;55.838;37.184;2023-02-20T11:06:53;97134.94;;;-5.52;47.69
65534;BME280;53640;55.838;37.184;2023-02-20T11:09:21;97124.44;;;-5.60;47.61
65534;BME280;53640;55.838;37.184;2023-02-20T11:11:58;97128.03;;;-5.61;47.48
65534;BME280;53640;55.838;37.184;2023-02-20T11:14:48;97146.31;;;-5.51;47.22
65534;BME280;53640;55.838;37.184;2023-02-20T11:17:18;97212.56;;;-5.15;47.28
65534;BME280;53640;55.838;37.184;2023-02-20T11:19:58;97261.25;;;-4.86;47.71
65534;BME280;53640;55.838;37.184;2023-02-20T11:22:44;97240.84;;;-5.01;47.53
65534;BME280;53640;55.838;37.184;2023-02-20T11:25:35;97214.75;;;-5.27;47.47
65534;BME280;53640;55.838;37.184;2023-02-20T11:28:28;97267.72;;;-4.97;47.36
65534;BME280;53640;55.838;37.184;2023-02-20T11:31:03;97247.16;;;-5.10;47.04
65534;BME280;53640;55.838;37.184;2023-02-20T11:33:43;97221.19;;;-5.29;47.36
65534;BME280;53640;55.838;37.184;2023-02-20T11:36:26;97272.34;;;-4.99;47.24
65534;BME280;53640;55.838;37.184;2023-02-20T11:39:01;97259.34;;;-5.09;47.33
65534;BME280;53640;55.838;37.184;2023-02-20T11:41:34;97223.97;;;-5.31;47.09
65534;BME280;53640;55.838;37.184;2023-02-20T11:46:40;97267.44;;;-5.10;47.11
65534;BME280;53640;55.838;37.184;2023-02-20T11:49:26;97241.31;;;-5.36;47.07
65534;BME280;53640;55.838;37.184;2023-02-20T11:52:06;97236.56;;;-5.41;47.58
65534;BME280;53640;55.838;37.184;2023-02-20T11:54:33;97230.81;;;-5.53;47.46
65534;BME280;53640;55.838;37.184;2023-02-20T11:57:03;97237.19;;;-5.39;47.69
65534;BME280;53640;55.838;37.184;2023-02-20T11:59:40;97261.88;;;-5.23;47.45
65534;BME280;53640;55.838;37.184;2023-02-20T12:04:59;97242.44;;;-5.31;47.83
65534;BME280;53640;55.838;37.184;2023-02-20T12:10:15;97196.38;;;-5.51;47.67
65534;BME280;53640;55.838;37.184;2023-02-20T12:12:45;97263.31;;;-5.13;47.88
65534;BME280;53640;55.838;37.184;2023-02-20T12:15:18;97228.44;;;-5.31;47.76
65534;BME280;53640;55.838;37.184;2023-02-20T12:20:20;97232.63;;;-5.45;48.05
65534;BME280;53640;55.838;37.184;2023-02-20T12:25:37;97282.81;;;-5.30;48.37
65534;BME280;53640;55.838;37.184;2023-02-20T12:36:42;97276.91;;;-5.40;48.21
65534;BME280;53640;55.838;37.184;2023-02-20T12:39:29;97275.63;;;-5.44;48.24
65534;BME280;53640;55.838;37.184;2023-02-20T12:42:11;97264.75;;;-5.58;48.13
65534;BME280;53640;55.838;37.184;2023-02-20T12:44:51;97280.22;;;-5.46;48.29
65534;BME280;53640;55.838;37.184;2023-02-20T12:47:39;97275.63;;;-5.53;48.41
65534;BME280;53640;55.838;37.184;2023-02-20T12:53:35;97263.09;;;-5.59;48.76
65534;BME280;53640;55.838;37.184;2023-02-20T12:56:39;97247.94;;;-5.65;48.37
65534;BME280;53640;55.838;37.184;2023-02-20T13:02:14;97254.19;;;-5.58;48.57
65534;BME280;53640;55.838;37.184;2023-02-20T13:04:53;97274.78;;;-5.45;48.39
65534;BME280;53640;55.838;37.184;2023-02-20T13:07:52;97273.00;;;-5.53;48.73
65534;BME280;53640;55.838;37.184;2023-02-20T13:12:43;97277.91;;;-5.50;48.99
65534;BME280;53640;55.838;37.184;2023-02-20T13:18:11;97272.16;;;-5.53;48.96
65534;BME280;53640;55.838;37.184;2023-02-20T13:21:07;97253.22;;;-5.65;48.95
65534;BME280;53640;55.838;37.184;2023-02-20T13:23:34;97265.22;;;-5.54;48.98
65534;BME280;53640;55.838;37.184;2023-02-20T13:26:02;97218.81;;;-5.80;49.34
65534;BME280;53640;55.838;37.184;2023-02-20T13:28:35;97271.00;;;-5.51;49.31
65534;BME280;53640;55.838;37.184;2023-02-20T13:33:47;97275.75;;;-5.46;49.31
65534;BME280;53640;55.838;37.184;2023-02-20T13:36:42;97277.56;;;-5.46;49.28
65534;BME280;53640;55.838;37.184;2023-02-20T13:46:56;97254.53;;;-5.53;49.44
65534;BME280;53640;55.838;37.184;2023-02-20T14:00:35;97286.16;;;-5.44;48.76
65534;BME280;53640;55.838;37.184;2023-02-20T14:03:21;97282.34;;;-5.50;48.36
65534;BME280;53640;55.838;37.184;2023-02-20T14:08:28;97253.25;;;-5.81;48.75
65534;BME280;53640;55.838;37.184;2023-02-20T14:10:54;97229.88;;;-5.92;48.85
65534;BME280;53640;55.838;37.184;2023-02-20T14:13:22;97277.78;;;-5.72;49.16
65534;BME280;53640;55.838;37.184;2023-02-20T14:15:58;97286.50;;;-5.72;49.34
65534;BME280;53640;55.838;37.184;2023-02-20T14:18:33;97292.59;;;-5.80;49.67
65534;BME280;53640;55.838;37.184;2023-02-20T14:21:06;97298.22;;;-5.83;49.79
65534;BME280;53640;55.838;37.184;2023-02-20T14:23:40;97280.91;;;-6.02;49.70
65534;BME280;53640;55.838;37.184;2023-02-20T14:26:47;97273.16;;;-6.11;49.82
65534;BME280;53640;55.838;37.184;2023-02-20T14:29:33;97258.19;;;-6.27;50.08
65534;BME280;53640;55.838;37.184;2023-02-20T14:32:01;97294.06;;;-6.10;50.03
65534;BME280;53640;55.838;37.184;2023-02-20T14:40:17;97308.03;;;-6.17;50.37
65534;BME280;53640;55.838;37.184;2023-02-20T14:42:48;97290.41;;;-6.33;50.58
65534;BME280;53640;55.838;37.184;2023-02-20T14:45:22;97278.88;;;-6.40;50.75
65534;BME280;53640;55.838;37.184;2023-02-20T14:47:54;97280.03;;;-6.43;50.86
65534;BME280;53640;55.838;37.184;2023-02-20T14:50:24;97283.81;;;-6.45;50.88
65534;BME280;53640;55.838;37.184;2023-02-20T14:53:14;97305.22;;;-6.32;50.88
65534;BME280;53640;55.838;37.184;2023-02-20T14:55:42;97304.88;;;-6.37;50.58
65534;BME280;53640;55.838;37.184;2023-02-20T14:58:17;97304.22;;;-6.39;50.81
65534;BME280;53640;55.838;37.184;2023-02-20T15:00:44;97282.13;;;-6.55;50.63
65534;BME280;53640;55.838;37.184;2023-02-20T15:03:27;97305.53;;;-6.43;50.77
65534;BME280;53640;55.838;37.184;2023-02-20T15:06:12;97306.50;;;-6.44;50.78
65534;BME280;53640;55.838;37.184;2023-02-20T15:08:59;97248.00;;;-6.89;50.93
65534;BME280;53640;55.838;37.184;2023-02-20T15:11:30;97150.34;;;-7.53;50.70
65534;BME280;53640;55.838;37.184;2023-02-20T15:14:26;97175.41;;;-7.40;50.99
65534;BME280;53640;55.838;37.184;2023-02-20T15:19:41;97227.25;;;-7.08;51.14
65534;BME280;53640;55.838;37.184;2023-02-20T15:22:32;97194.47;;;-7.30;51.35
65534;BME280;53640;55.838;37.184;2023-02-20T15:25:28;97299.06;;;-6.65;51.27
65534;BME280;53640;55.838;37.184;2023-02-20T15:33:45;97202.03;;;-7.27;51.70
65534;BME280;53640;55.838;37.184;2023-02-20T15:36:21;97267.25;;;-6.88;51.89
65534;BME280;53640;55.838;37.184;2023-02-20T15:38:54;97227.22;;;-7.16;51.96
65534;BME280;53640;55.838;37.184;2023-02-20T15:41:24;97270.84;;;-6.89;51.96
65534;BME280;53640;55.838;37.184;2023-02-20T15:44:08;97269.22;;;-6.90;52.12
65534;BME280;53640;55.838;37.184;2023-02-20T15:46:39;97240.56;;;-7.10;52.24
65534;BME280;53640;55.838;37.184;2023-02-20T15:49:06;97297.03;;;-6.80;52.24
65534;BME280;53640;55.838;37.184;2023-02-20T15:51:37;97303.13;;;-6.79;52.10
65534;BME280;53640;55.838;37.184;2023-02-20T15:54:06;97284.00;;;-6.89;52.13
65534;BME280;53640;55.838;37.184;2023-02-20T15:56:34;97295.75;;;-6.76;52.07
65534;BME280;53640;55.838;37.184;2023-02-20T15:59:03;97282.56;;;-6.84;52.28